Time;durP1;ratioP1;P1;durP2;ratioP2;P2;SDS_P1;SDS_P2;PMS_P1;PMS_P2;Temp;Humidity;BMP_temperature;BMP_pressure;BME280_temperature;BME280_humidity;BME280_pressure;Samples;Min_cycle;Max_cycle;Signal;HPM_P1;HPM_P2
2021/03/11 06:23:10;;;;;;;57.70;37.10;;;;;;;-3.03;80.26;98438.44;1847766;76;28067;-58
2021/03/11 06:25:39;;;;;;;40.63;26.75;;;;;;;-3.02;80.25;98451.05;1818137;79;20927;-61
2021/03/11 06:28:07;;;;;;;22.48;17.45;;;;;;;-2.95;80.17;98446.66;1818024;79;21831;-61
2021/03/11 06:30:40;;;;;;;20.52;14.53;;;;;;;-2.86;80.06;98453.35;1817956;79;21771;-62
2021/03/11 06:33:08;;;;;;;18.80;15.35;;;;;;;-2.73;80.00;98451.31;1817980;79;20892;-59
2021/03/11 06:35:42;;;;;;;29.67;20.50;;;;;;;-2.65;79.81;98462.44;1817904;79;21362;-64
2021/03/11 06:38:06;;;;;;;20.08;15.72;;;;;;;-2.55;79.68;98455.02;1817553;79;21452;-60
2021/03/11 06:40:36;;;;;;;16.75;12.95;;;;;;;-2.43;79.50;98465.76;1787109;79;22704;-60
2021/03/11 06:43:12;;;;;;;17.98;14.60;;;;;;;-2.38;79.07;98467.30;1817916;79;20947;-63
2021/03/11 06:45:40;;;;;;;21.40;15.20;;;;;;;-2.34;78.93;98471.14;1818128;79;21030;-58
2021/03/11 06:48:24;;;;;;;27.05;20.62;;;;;;;-2.27;78.87;98473.28;1818138;78;21444;-61
2021/03/11 06:50:55;;;;;;;33.55;23.60;;;;;;;-2.17;78.70;98471.88;1818184;79;21107;-62
2021/03/11 06:53:23;;;;;;;20.17;15.65;;;;;;;-2.04;78.45;98467.18;1818037;79;21576;-59
2021/03/11 06:55:51;;;;;;;37.03;25.57;;;;;;;-1.95;78.07;98471.23;1817916;79;21533;-62
2021/03/11 06:58:23;;;;;;;22.45;17.37;;;;;;;-1.93;77.76;98478.94;1813156;79;20971;-58
2021/03/11 07:01:08;;;;;;;24.52;17.32;;;;;;;-1.94;77.58;98478.12;1817952;79;20982;-62
2021/03/11 07:03:43;;;;;;;22.58;17.57;;;;;;;-1.93;77.51;98477.09;1818033;79;20919;-60
2021/03/11 07:06:14;;;;;;;24.12;16.70;;;;;;;-1.88;77.36;98466.80;1818102;79;22262;-59
2021/03/11 07:08:49;;;;;;;19.90;15.00;;;;;;;-1.82;76.99;98473.91;1765846;77;21053;-62
2021/03/11 07:11:22;;;;;;;18.62;14.87;;;;;;;-1.86;76.59;98476.59;1837075;77;21576;-61
2021/03/11 07:13:51;;;;;;;25.15;16.23;;;;;;;-1.91;76.37;98470.35;1770554;80;21555;-58
2021/03/11 07:16:22;;;;;;;28.90;18.75;;;;;;;-1.94;76.44;98471.55;1806882;79;21049;-61
2021/03/11 07:19:12;;;;;;;24.60;17.55;;;;;;;-1.94;76.53;98472.87;1790428;79;21395;-57
2021/03/11 07:21:47;;;;;;;21.55;16.12;;;;;;;-1.88;76.39;98464.18;1792246;79;21184;-60
2021/03/11 07:24:36;;;;;;;23.87;16.02;;;;;;;-1.87;76.01;98471.06;1790457;79;21897;-60
2021/03/11 07:27:10;;;;;;;24.92;17.77;;;;;;;-1.88;75.89;98471.24;1738846;81;21635;-61
2021/03/11 07:29:39;;;;;;;17.70;14.33;;;;;;;-1.90;75.99;98478.02;1768677;81;21579;-59
2021/03/11 07:32:08;;;;;;;19.05;14.05;;;;;;;-1.88;75.78;98468.12;1737753;82;22080;-62
2021/03/11 07:34:37;;;;;;;21.35;16.90;;;;;;;-1.89;75.71;98465.20;1736890;80;21129;-58
2021/03/11 07:37:05;;;;;;;22.58;16.77;;;;;;;-1.90;75.75;98471.45;1746587;82;21537;-60
2021/03/11 07:39:40;;;;;;;22.30;18.25;;;;;;;-1.86;75.92;98475.29;1817097;78;20927;-64
2021/03/11 07:42:09;;;;;;;24.57;18.17;;;;;;;-1.80;75.92;98475.82;1825094;78;20983;-60
2021/03/11 07:44:38;;;;;;;20.77;16.55;;;;;;;-1.78;75.50;98472.48;1807482;78;21521;-57
2021/03/11 07:47:08;;;;;;;22.80;17.95;;;;;;;-1.79;74.85;98469.54;1784872;78;21070;-61
2021/03/11 07:49:38;;;;;;;18.95;16.02;;;;;;;-1.87;75.09;98480.25;1783007;79;20899;-61
2021/03/11 07:52:07;;;;;;;24.55;17.95;;;;;;;-1.90;74.94;98479.83;1778747;79;20923;-60
2021/03/11 07:54:36;;;;;;;24.57;17.30;;;;;;;-1.92;75.17;98480.53;1782285;78;21096;-63
2021/03/11 07:57:05;;;;;;;20.85;16.42;;;;;;;-1.90;75.19;98468.83;1792801;80;22239;-57
2021/03/11 07:59:32;;;;;;;25.27;17.35;;;;;;;-1.88;75.05;98472.05;1790275;78;21327;-60
2021/03/11 08:02:08;;;;;;;28.10;19.10;;;;;;;-1.86;74.99;98467.94;1770413;81;21627;-57
2021/03/11 08:04:42;;;;;;;23.60;18.98;;;;;;;-1.87;75.13;98465.81;1771048;81;21050;-60
2021/03/11 08:07:19;;;;;;;20.48;16.02;;;;;;;-1.84;75.14;98466.73;1764520;81;21254;-60
2021/03/11 08:09:54;;;;;;;21.00;17.30;;;;;;;-1.81;74.85;98463.69;1795597;78;21409;-60
2021/03/11 08:12:37;;;;;;;21.70;17.35;;;;;;;-1.84;74.84;98465.42;1814339;78;21212;-59
2021/03/11 08:15:18;;;;;;;22.93;18.95;;;;;;;-1.84;74.88;98461.98;1751783;80;21161;-57
2021/03/11 08:17:49;;;;;;;22.70;17.27;;;;;;;-1.82;75.04;98460.77;1767681;80;21202;-56
2021/03/11 08:20:30;;;;;;;29.05;19.98;;;;;;;-1.80;74.67;98452.69;1793249;79;21477;-60
2021/03/11 08:23:01;;;;;;;20.20;15.88;;;;;;;-1.82;74.80;98451.58;1773081;79;22185;-57
2021/03/11 08:25:37;;;;;;;24.85;19.73;;;;;;;-1.82;74.32;98445.02;1790458;79;20919;-59
2021/03/11 08:28:19;;;;;;;21.42;17.65;;;;;;;-1.88;74.54;98444.48;1780017;80;20932;-58
2021/03/11 08:30:52;;;;;;;20.97;16.97;;;;;;;-1.86;74.64;98433.28;1840331;77;21192;-56
2021/03/11 08:33:30;;;;;;;23.80;15.85;;;;;;;-1.84;74.44;98429.16;1818843;77;20981;-59
2021/03/11 08:36:04;;;;;;;24.52;17.07;;;;;;;-1.84;73.83;98442.28;1792852;78;21041;-58
2021/03/11 08:38:37;;;;;;;19.17;14.93;;;;;;;-1.89;73.61;98433.70;1744370;80;20912;-62
2021/03/11 08:41:13;;;;;;;20.32;14.53;;;;;;;-1.95;73.19;98443.67;1778724;79;21458;-57
2021/03/11 08:43:46;;;;;;;20.72;15.48;;;;;;;-2.00;73.22;98437.42;1801790;78;21223;-60
2021/03/11 08:46:22;;;;;;;22.48;15.63;;;;;;;-2.01;73.50;98430.05;1769759;80;20939;-58
2021/03/11 08:49:00;;;;;;;25.97;16.93;;;;;;;-1.96;73.47;98436.82;1769661;81;21135;-60
2021/03/11 08:51:37;;;;;;;22.00;17.12;;;;;;;-1.90;73.51;98434.69;1796666;77;21540;-57
2021/03/11 08:54:22;;;;;;;24.95;16.05;;;;;;;-1.83;73.50;98440.76;1815405;78;21164;-59
2021/03/11 08:56:52;;;;;;;18.98;15.25;;;;;;;-1.75;73.15;98436.64;1799487;77;20934;-61
2021/03/11 08:59:21;;;;;;;18.32;14.63;;;;;;;-1.74;72.95;98431.67;1805213;78;21133;-58
2021/03/11 09:01:54;;;;;;;20.55;14.53;;;;;;;-1.73;72.38;98422.80;1822231;78;22702;-58
2021/03/11 09:04:37;;;;;;;18.57;14.30;;;;;;;-1.76;72.47;98433.70;1823610;78;21587;-62
2021/03/11 09:07:29;;;;;;;19.75;15.00;;;;;;;-1.80;72.29;98432.48;1801166;79;21122;-60
2021/03/11 09:09:58;;;;;;;19.23;13.68;;;;;;;-1.80;72.27;98436.43;1794381;79;21019;-57
2021/03/11 09:12:38;;;;;;;19.52;14.53;;;;;;;-1.78;72.13;98438.34;1818132;78;20997;-58
2021/03/11 09:15:11;;;;;;;20.52;15.50;;;;;;;-1.77;72.15;98439.98;1790723;80;21191;-61
2021/03/11 09:17:41;;;;;;;20.60;15.00;;;;;;;-1.74;72.33;98436.11;1809424;77;21088;-58
2021/03/11 09:20:15;;;;;;;18.17;13.75;;;;;;;-1.67;72.37;98428.55;1844124;77;20975;-60
2021/03/11 09:22:51;;;;;;;29.05;20.57;;;;;;;-1.58;72.16;98433.89;1773267;80;21160;-64
2021/03/11 09:25:27;;;;;;;25.10;17.35;;;;;;;-1.54;71.71;98425.94;1828900;78;21509;-58
2021/03/11 09:27:59;;;;;;;22.62;16.20;;;;;;;-1.53;71.28;98427.53;1780119;80;22212;-61
2021/03/11 09:30:36;;;;;;;20.70;15.18;;;;;;;-1.49;71.34;98439.77;1819928;78;21042;-63
2021/03/11 09:33:14;;;;;;;23.50;16.10;;;;;;;-1.39;71.16;98429.67;1780237;80;21169;-59
2021/03/11 09:35:42;;;;;;;20.40;14.83;;;;;;;-1.24;71.42;98425.48;1780002;80;21022;-62
2021/03/11 09:38:12;;;;;;;20.17;15.15;;;;;;;-1.02;70.64;98415.04;1792412;79;21153;-60
2021/03/11 09:40:42;;;;;;;19.67;15.10;;;;;;;-0.97;69.89;98421.81;1783271;79;21304;-63
2021/03/11 09:43:36;;;;;;;19.85;15.90;;;;;;;-0.95;69.69;98422.41;1780028;80;21552;-64
2021/03/11 09:46:15;;;;;;;21.55;16.02;;;;;;;-0.88;69.19;98420.56;1778504;79;21183;-59
2021/03/11 09:48:50;;;;;;;23.15;17.17;;;;;;;-0.87;68.87;98420.85;1795185;79;21038;-58
2021/03/11 09:51:28;;;;;;;22.37;15.98;;;;;;;-0.78;69.01;98417.00;1800302;79;21006;-61
2021/03/11 09:54:03;;;;;;;22.52;14.73;;;;;;;-0.71;68.60;98417.25;1778789;80;21335;-60
2021/03/11 09:56:45;;;;;;;18.85;15.38;;;;;;;-0.65;68.14;98411.68;1778925;80;21169;-59
2021/03/11 09:59:15;;;;;;;22.15;15.23;;;;;;;-0.65;67.99;98418.76;1779305;79;21158;-62
2021/03/11 10:01:46;;;;;;;18.15;12.95;;;;;;;-0.69;68.01;98415.75;1790968;79;21203;-61
2021/03/11 10:04:28;;;;;;;17.32;14.15;;;;;;;-0.68;68.14;98412.09;1780343;80;20935;-62
2021/03/11 10:07:00;;;;;;;18.20;13.70;;;;;;;-0.60;68.02;98414.50;1780492;80;21376;-59
2021/03/11 10:09:45;;;;;;;17.07;13.83;;;;;;;-0.52;67.75;98395.86;1803315;79;21512;-60
2021/03/11 10:12:14;;;;;;;17.62;13.93;;;;;;;-0.44;67.58;98402.17;1811112;79;21572;-60
2021/03/11 10:14:43;;;;;;;16.23;13.60;;;;;;;-0.46;67.13;98397.63;1810992;79;21568;-61
2021/03/11 10:17:19;;;;;;;19.05;15.15;;;;;;;-0.50;67.37;98406.16;1810756;79;21192;-59
2021/03/11 10:19:49;;;;;;;22.73;18.07;;;;;;;-0.52;67.60;98394.53;1810888;79;21195;-61
2021/03/11 10:22:19;;;;;;;31.95;20.88;;;;;;;-0.50;67.84;98404.34;1782885;79;21670;-62
2021/03/11 10:24:51;;;;;;;20.68;15.32;;;;;;;-0.44;67.51;98397.41;1790425;80;21164;-60
2021/03/11 10:27:32;;;;;;;22.82;18.17;;;;;;;-0.37;67.87;98394.23;1790287;80;21183;-59
2021/03/11 10:30:07;;;;;;;18.80;14.98;;;;;;;-0.26;67.88;98393.59;1790944;80;21512;-60
2021/03/11 10:32:38;;;;;;;18.25;15.23;;;;;;;-0.19;67.26;98396.99;1822883;78;21959;-60
2021/03/11 10:35:14;;;;;;;18.12;14.75;;;;;;;-0.25;66.79;98382.84;1823837;78;20923;-59
2021/03/11 10:37:42;;;;;;;17.30;15.18;;;;;;;-0.30;67.12;98388.42;1823575;78;21180;-63
2021/03/11 10:40:15;;;;;;;18.70;14.75;;;;;;;-0.35;67.04;98386.43;1816334;78;21595;-57
2021/03/11 10:42:45;;;;;;;20.02;16.52;;;;;;;-0.33;67.25;98384.39;1827190;77;21356;-60
2021/03/11 10:45:20;;;;;;;20.65;17.57;;;;;;;-0.25;67.35;98385.47;1759402;80;21599;-58
2021/03/11 10:48:04;;;;;;;18.32;14.10;;;;;;;-0.13;66.97;98385.59;1799485;79;21173;-61
2021/03/11 10:50:48;;;;;;;20.52;16.73;;;;;;;-0.09;66.14;98391.54;1818177;78;21184;-57
2021/03/11 10:53:18;;;;;;;19.45;14.20;;;;;;;-0.15;66.18;98380.55;1814000;78;21105;-60
2021/03/11 10:55:47;;;;;;;19.85;16.00;;;;;;;-0.17;65.95;98365.98;1787184;79;21170;-59
2021/03/11 10:58:26;;;;;;;18.73;15.03;;;;;;;-0.23;66.44;98361.05;1734031;82;22033;-59
2021/03/11 11:01:13;;;;;;;19.70;15.15;;;;;;;-0.16;66.59;98369.71;1771546;79;21213;-65
2021/03/11 11:03:42;;;;;;;22.55;16.97;;;;;;;-0.10;65.84;98358.34;1813048;79;21204;-58
2021/03/11 11:06:11;;;;;;;23.05;17.23;;;;;;;-0.09;65.47;98354.67;1813634;79;21165;-57
2021/03/11 11:08:45;;;;;;;20.97;15.58;;;;;;;-0.08;65.82;98358.94;1714973;82;21196;-64
2021/03/11 11:11:20;;;;;;;21.90;15.18;;;;;;;0.00;65.62;98361.29;1813875;78;21438;-58
2021/03/11 11:13:51;;;;;;;22.97;15.73;;;;;;;0.10;65.52;98352.09;1789776;79;21172;-58
2021/03/11 11:16:19;;;;;;;20.25;14.18;;;;;;;0.25;64.61;98355.23;1808309;77;21823;-62
2021/03/11 11:18:48;;;;;;;20.70;16.77;;;;;;;0.37;63.76;98329.80;1808477;77;21612;-62
2021/03/11 11:21:17;;;;;;;18.23;13.35;;;;;;;0.47;63.51;98338.02;1836135;77;21160;-57
2021/03/11 11:23:45;;;;;;;18.23;14.38;;;;;;;0.52;62.53;98327.60;1766540;80;22154;-57
2021/03/11 11:26:15;;;;;;;20.50;13.43;;;;;;;0.43;62.33;98335.50;1791971;79;21621;-58
2021/03/11 11:28:46;;;;;;;16.60;12.65;;;;;;;0.30;61.90;98323.78;1818897;77;21121;-62
2021/03/11 11:31:15;;;;;;;16.35;12.58;;;;;;;0.17;62.12;98322.05;1748148;80;21159;-59
2021/03/11 11:33:44;;;;;;;19.65;13.83;;;;;;;0.06;62.61;98318.00;1759186;80;21207;-62
2021/03/11 11:36:12;;;;;;;18.02;13.90;;;;;;;0.04;62.57;98325.31;1755178;80;21223;-62
2021/03/11 11:38:40;;;;;;;16.40;13.43;;;;;;;-0.01;62.36;98316.23;1767615;80;21186;-60
2021/03/11 11:41:08;;;;;;;17.12;13.10;;;;;;;-0.10;62.40;98297.78;1782701;80;21477;-59
2021/03/11 11:43:37;;;;;;;18.82;14.87;;;;;;;-0.15;62.58;98305.52;1800801;79;21077;-61
2021/03/11 11:46:06;;;;;;;19.45;13.93;;;;;;;-0.17;62.74;98303.61;1814965;79;21488;-63
2021/03/11 11:48:36;;;;;;;17.23;13.22;;;;;;;-0.13;63.08;98295.56;1814899;79;22149;-58
2021/03/11 11:51:05;;;;;;;15.03;12.53;;;;;;;-0.07;62.58;98294.70;1786771;79;21476;-61
2021/03/11 11:53:33;;;;;;;17.77;14.47;;;;;;;-0.02;62.29;98292.23;1800257;79;20998;-61
2021/03/11 11:56:02;;;;;;;16.00;12.88;;;;;;;0.04;62.57;98284.49;1782716;80;21540;-62
2021/03/11 11:58:30;;;;;;;18.02;13.70;;;;;;;0.10;62.31;98280.98;1790841;77;21105;-61
2021/03/11 12:00:58;;;;;;;17.70;14.18;;;;;;;0.13;61.97;98270.02;1814848;79;22680;-60
2021/03/11 12:03:26;;;;;;;16.80;14.10;;;;;;;0.13;62.30;98280.56;1805226;79;21516;-58
2021/03/11 12:05:54;;;;;;;20.55;14.78;;;;;;;0.11;62.08;98272.07;1793819;79;20994;-60
2021/03/11 12:08:23;;;;;;;19.95;13.93;;;;;;;0.11;62.73;98276.02;1790032;79;21136;-61
2021/03/11 12:10:51;;;;;;;17.67;12.45;;;;;;;0.13;62.43;98277.92;1814883;79;21161;-58
2021/03/11 12:13:20;;;;;;;14.85;12.45;;;;;;;0.13;61.81;98269.52;1814799;79;22096;-58
2021/03/11 12:15:50;;;;;;;15.10;11.68;;;;;;;0.09;61.68;98263.59;1778291;80;21097;-57
2021/03/11 12:18:22;;;;;;;17.02;13.53;;;;;;;0.06;61.32;98267.96;1780275;79;21034;-59
2021/03/11 12:20:51;;;;;;;13.60;12.05;;;;;;;-0.02;61.22;98260.63;1794026;79;21219;-62
2021/03/11 12:23:21;;;;;;;15.68;12.00;;;;;;;-0.06;61.55;98264.72;1779303;78;21178;-58
2021/03/11 12:25:50;;;;;;;15.35;12.10;;;;;;;-0.07;61.58;98253.88;1771649;81;21203;-56
2021/03/11 12:28:18;;;;;;;17.02;11.50;;;;;;;-0.04;61.42;98244.24;1787604;79;21592;-58
2021/03/11 12:30:46;;;;;;;13.93;11.70;;;;;;;0.03;61.23;98251.27;1797889;79;20919;-59
2021/03/11 12:33:16;;;;;;;18.70;12.82;;;;;;;0.09;61.56;98241.20;1786725;79;21647;-61
2021/03/11 12:35:46;;;;;;;16.85;12.13;;;;;;;0.18;61.19;98245.16;1800431;79;21187;-60
2021/03/11 12:38:15;;;;;;;17.92;13.62;;;;;;;0.32;61.48;98246.63;1800252;79;21199;-57
2021/03/11 12:40:43;;;;;;;13.72;10.98;;;;;;;0.41;60.59;98232.14;1734937;82;21219;-61
2021/03/11 12:43:11;;;;;;;15.05;11.80;;;;;;;0.41;59.87;98245.31;1745279;82;21652;-60
2021/03/11 12:45:42;;;;;;;15.25;11.55;;;;;;;0.34;60.17;98247.22;1803044;79;21172;-57
2021/03/11 12:48:11;;;;;;;13.20;11.05;;;;;;;0.27;60.28;98229.35;1792090;78;21568;-61
2021/03/11 12:50:41;;;;;;;14.15;11.15;;;;;;;0.17;60.25;98219.82;1786298;79;21761;-59
2021/03/11 12:53:22;;;;;;;16.40;12.75;;;;;;;0.18;60.49;98222.77;1784906;78;21722;-64
2021/03/11 12:55:50;;;;;;;16.62;12.43;;;;;;;0.38;60.52;98200.95;1784509;78;21157;-59
2021/03/11 12:58:20;;;;;;;13.58;11.30;;;;;;;0.73;60.68;98202.48;1795714;78;21173;-60
2021/03/11 13:00:50;;;;;;;15.35;12.10;;;;;;;1.12;59.76;98200.11;1774060;79;21224;-61
2021/03/11 13:03:18;;;;;;;14.98;12.05;;;;;;;1.42;58.69;98200.57;1773456;80;21639;-63
2021/03/11 13:05:49;;;;;;;14.95;11.38;;;;;;;1.62;57.68;98191.33;1777904;79;21208;-62
2021/03/11 13:08:16;;;;;;;15.30;12.47;;;;;;;1.80;57.16;98199.14;1790494;77;21173;-62
2021/03/11 13:10:44;;;;;;;16.80;11.57;;;;;;;1.99;56.89;98182.66;1745284;81;21564;-61
2021/03/11 13:13:13;;;;;;;14.73;10.55;;;;;;;2.20;56.34;98181.25;1737040;82;21655;-58
2021/03/11 13:15:51;;;;;;;14.30;10.38;;;;;;;2.34;54.80;98167.56;1740729;79;22085;-60
2021/03/11 13:18:23;;;;;;;12.90;10.85;;;;;;;2.26;54.28;98167.91;1736290;82;21579;-62
2021/03/11 13:20:51;;;;;;;16.05;11.95;;;;;;;2.20;54.87;98173.33;1736506;81;21839;-59
2021/03/11 13:23:20;;;;;;;13.78;11.73;;;;;;;2.25;55.05;98190.11;1738465;81;21649;-57
2021/03/11 13:25:48;;;;;;;15.78;11.93;;;;;;;2.23;54.38;98186.90;1787819;80;21592;-58
2021/03/11 13:28:17;;;;;;;15.93;13.18;;;;;;;2.10;54.63;98179.20;1787818;80;22199;-60
2021/03/11 13:30:45;;;;;;;27.93;17.55;;;;;;;2.03;54.62;98170.08;1787609;80;21186;-61
2021/03/11 13:33:15;;;;;;;17.82;13.75;;;;;;;2.00;54.92;98164.47;1811336;77;21231;-59
2021/03/11 13:35:44;;;;;;;18.32;14.05;;;;;;;2.06;54.99;98160.38;1817328;78;21074;-59
2021/03/11 13:38:12;;;;;;;18.75;16.02;;;;;;;2.20;54.76;98150.35;1802420;78;21547;-61
2021/03/11 13:40:42;;;;;;;14.78;11.80;;;;;;;2.21;54.44;98133.47;1789895;78;22069;-61
2021/03/11 13:43:16;;;;;;;13.90;11.28;;;;;;;2.21;54.13;98133.98;1807402;77;21599;-61
2021/03/11 13:45:46;;;;;;;13.08;10.85;;;;;;;2.17;54.19;98115.13;1780291;80;21584;-59
2021/03/11 13:48:16;;;;;;;14.87;12.05;;;;;;;2.18;53.91;98126.00;1816975;78;21512;-60
2021/03/11 13:50:45;;;;;;;15.63;11.97;;;;;;;2.14;53.99;98116.95;1771827;79;21121;-60
2021/03/11 13:53:14;;;;;;;14.03;10.98;;;;;;;2.11;53.81;98114.76;1839422;77;21959;-59
2021/03/11 13:55:42;;;;;;;14.70;11.78;;;;;;;2.08;53.73;98100.17;1756570;80;21554;-59
2021/03/11 13:58:10;;;;;;;16.27;12.95;;;;;;;2.04;53.93;98103.52;1821214;78;21433;-62
2021/03/11 14:00:38;;;;;;;16.62;13.68;;;;;;;2.00;53.99;98091.81;1805677;77;21678;-59
2021/03/11 14:03:06;;;;;;;16.15;11.95;;;;;;;1.96;54.43;98066.88;1793696;78;21586;-63
2021/03/11 14:05:35;;;;;;;15.45;12.28;;;;;;;1.91;54.78;98091.86;1790302;78;22775;-61
2021/03/11 14:08:05;;;;;;;15.05;11.60;;;;;;;1.85;54.50;98080.92;1845566;77;21619;-59
2021/03/11 14:10:33;;;;;;;14.53;11.50;;;;;;;1.78;54.91;98071.80;1792399;77;21183;-60
2021/03/11 14:13:03;;;;;;;14.47;12.33;;;;;;;1.75;54.91;98070.94;1807809;77;21595;-61
2021/03/11 14:15:32;;;;;;;18.35;12.73;;;;;;;1.65;55.42;98064.66;1791474;78;21243;-59
2021/03/11 14:18:00;;;;;;;20.25;12.30;;;;;;;1.61;55.56;98056.88;1787197;80;22245;-62
2021/03/11 14:20:28;;;;;;;16.32;11.80;;;;;;;1.56;55.53;98060.73;1787159;80;21674;-59
2021/03/11 14:22:56;;;;;;;17.87;12.20;;;;;;;1.47;55.74;98056.33;1787714;80;21620;-57
2021/03/11 14:25:26;;;;;;;19.45;12.63;;;;;;;1.39;56.42;98050.87;1787368;79;21689;-58
2021/03/11 14:27:54;;;;;;;26.12;18.77;;;;;;;1.43;56.57;98042.50;1787729;80;21226;-63
2021/03/11 14:30:25;;;;;;;48.60;38.65;;;;;;;1.42;56.58;98042.20;1787401;80;21404;-63
2021/03/11 14:32:53;;;;;;;22.10;17.60;;;;;;;1.41;56.56;98045.39;1787789;80;21227;-57
2021/03/11 14:35:22;;;;;;;15.13;11.55;;;;;;;1.32;56.72;98036.99;1788255;80;21602;-57
2021/03/11 14:37:50;;;;;;;18.75;15.85;;;;;;;1.26;57.01;98035.28;1819787;78;21076;-60
2021/03/11 14:40:18;;;;;;;17.05;12.13;;;;;;;1.20;57.45;98031.45;1821388;78;21057;-59
2021/03/11 14:42:46;;;;;;;20.05;13.40;;;;;;;1.15;57.63;98030.81;1824360;77;21359;-60
2021/03/11 14:45:15;;;;;;;16.02;12.10;;;;;;;1.14;57.79;98027.87;1765234;80;21624;-58
2021/03/11 14:47:43;;;;;;;14.18;11.20;;;;;;;1.11;57.49;98021.73;1793751;78;20934;-60
2021/03/11 14:50:13;;;;;;;14.18;11.28;;;;;;;1.03;57.46;98024.73;1798120;78;21570;-58
2021/03/11 14:52:41;;;;;;;14.58;10.72;;;;;;;0.93;57.56;98015.76;1797530;78;21192;-61
2021/03/11 14:55:12;;;;;;;16.85;10.90;;;;;;;0.80;57.90;98018.08;1820051;78;22683;-58
2021/03/11 14:57:40;;;;;;;14.58;12.35;;;;;;;0.74;58.65;98015.05;1819452;78;21180;-60
2021/03/11 15:00:10;;;;;;;18.55;12.95;;;;;;;0.77;59.03;98008.52;1819977;78;21706;-55
2021/03/11 15:02:38;;;;;;;15.80;12.13;;;;;;;0.79;59.31;97994.08;1813822;78;21199;-62
2021/03/11 15:05:11;;;;;;;16.67;12.63;;;;;;;0.82;59.40;97991.00;1805840;78;21204;-59
2021/03/11 15:07:41;;;;;;;15.08;11.60;;;;;;;0.79;59.41;97986.68;1819695;78;22252;-59
2021/03/11 15:10:12;;;;;;;18.85;12.73;;;;;;;0.75;59.68;97982.39;1820468;78;21069;-59
2021/03/11 15:12:40;;;;;;;17.02;12.73;;;;;;;0.70;59.99;97986.22;1809450;78;20970;-58
2021/03/11 15:15:10;;;;;;;15.45;12.45;;;;;;;0.66;60.18;97978.45;1789128;80;21911;-59
2021/03/11 15:17:37;;;;;;;18.90;11.73;;;;;;;0.62;60.31;97979.95;1789094;80;21489;-58
2021/03/11 15:20:09;;;;;;;17.37;13.18;;;;;;;0.56;60.45;97979.05;1791378;78;22101;-58
2021/03/11 15:22:38;;;;;;;17.07;12.50;;;;;;;0.54;60.58;97973.17;1821343;78;20943;-58
2021/03/11 15:25:08;;;;;;;17.37;12.95;;;;;;;0.47;60.62;97969.05;1811580;78;20912;-60
2021/03/11 15:27:36;;;;;;;20.08;12.63;;;;;;;0.42;60.91;97967.10;1806251;79;20927;-59
2021/03/11 15:30:06;;;;;;;17.37;11.33;;;;;;;0.39;61.06;97968.05;1806256;79;21525;-60
2021/03/11 15:32:34;;;;;;;21.87;16.37;;;;;;;0.35;61.11;97966.91;1805105;79;21662;-59
2021/03/11 15:35:05;;;;;;;34.88;26.45;;;;;;;0.29;61.40;97972.55;1804394;79;21591;-56
2021/03/11 15:37:33;;;;;;;17.75;13.40;;;;;;;0.25;61.45;97960.86;1804933;79;21196;-60
2021/03/11 15:40:04;;;;;;;15.18;11.88;;;;;;;0.23;61.59;97962.11;1804971;79;21901;-57
2021/03/11 15:42:32;;;;;;;38.73;27.75;;;;;;;0.19;61.77;97955.70;1805173;79;21173;-60
2021/03/11 15:45:01;;;;;;;19.05;15.58;;;;;;;0.14;61.86;97963.47;1805598;79;21933;-58
2021/03/11 15:47:28;;;;;;;18.12;13.80;;;;;;;0.11;62.00;97949.42;1806167;79;21086;-59
2021/03/11 15:49:57;;;;;;;18.75;13.45;;;;;;;0.06;62.14;97953.23;1806222;79;20943;-57
2021/03/11 15:52:25;;;;;;;19.23;13.65;;;;;;;0.04;62.30;97955.30;1806204;79;21014;-57
2021/03/11 15:54:53;;;;;;;23.65;13.13;;;;;;;0.06;62.48;97953.23;1784287;79;21557;-57
2021/03/11 15:57:21;;;;;;;16.77;13.70;;;;;;;0.06;62.62;97953.23;1806267;79;22007;-56
2021/03/11 15:59:49;;;;;;;18.10;13.90;;;;;;;0.08;62.90;97949.86;1806212;79;21481;-59
2021/03/11 16:02:18;;;;;;;19.40;13.65;;;;;;;0.11;63.13;97945.47;1806296;79;21410;-57
2021/03/11 16:04:46;;;;;;;21.40;13.62;;;;;;;0.10;63.32;97945.16;1806174;79;21069;-60
2021/03/11 16:07:14;;;;;;;18.67;14.30;;;;;;;0.09;63.46;97946.21;1806245;79;21157;-58
2021/03/11 16:09:43;;;;;;;19.32;13.53;;;;;;;0.06;63.54;97952.73;1806212;79;22507;-60
2021/03/11 16:12:11;;;;;;;19.75;14.38;;;;;;;0.05;63.62;97946.38;1805419;79;22135;-57
2021/03/11 16:14:40;;;;;;;18.02;13.98;;;;;;;0.03;63.73;97943.14;1804956;79;21592;-58
2021/03/11 16:17:08;;;;;;;19.55;13.22;;;;;;;0.01;63.86;97936.79;1804903;79;21172;-59
